Time;durP1;ratioP1;P1;durP2;ratioP2;P2;SDS_P1;SDS_P2;PMS_P1;PMS_P2;Temp;Humidity;BMP_temperature;BMP_pressure;BME280_temperature;BME280_humidity;BME280_pressure;Samples;Min_cycle;Max_cycle;Signal;HPM_P1;HPM_P2
2024/01/16 00:01:10;;;;;;;2.70;2.30;;;;;;;16.67;26.51;99416.31;7396706;19;20022;-81
2024/01/16 00:03:38;;;;;;;6.05;3.63;;;;;;;15.98;27.32;99409.59;7390117;19;20035;-81
2024/01/16 00:06:04;;;;;;;9.88;3.97;;;;;;;16.05;27.87;99411.06;7392832;19;20011;-80
2024/01/16 00:08:30;;;;;;;6.38;3.00;;;;;;;20.01;24.21;99392.94;7391475;19;20026;-81
2024/01/16 00:10:56;;;;;;;15.25;4.28;;;;;;;21.22;23.05;99396.63;7397529;19;20015;-81
2024/01/16 00:13:23;;;;;;;4.57;3.70;;;;;;;21.28;22.93;99388.72;7387860;19;20015;-80
2024/01/16 00:15:49;;;;;;;8.60;3.28;;;;;;;21.80;22.53;99388.09;7391279;19;20029;-81
2024/01/16 00:18:16;;;;;;;3.60;1.55;;;;;;;21.97;22.87;99387.56;7391482;19;20019;-81
2024/01/16 00:20:42;;;;;;;5.55;2.78;;;;;;;22.24;22.41;99380.19;7393965;19;20014;-81
2024/01/16 00:23:08;;;;;;;5.38;4.00;;;;;;;22.43;22.02;99374.16;7390122;19;20015;-81
2024/01/16 00:25:34;;;;;;;1.65;1.40;;;;;;;22.44;22.24;99370.72;7393434;19;20014;-81
2024/01/16 00:28:01;;;;;;;8.63;2.10;;;;;;;22.88;21.89;99364.78;7391526;19;20023;-81
2024/01/16 00:30:29;;;;;;;0.50;0.50;;;;;;;20.90;22.97;99373.59;7394140;19;20011;-81
2024/01/16 00:32:55;;;;;;;3.60;2.10;;;;;;;20.58;23.17;99359.84;7392169;19;20014;-81
2024/01/16 00:35:21;;;;;;;3.92;1.85;;;;;;;17.75;26.00;99368.09;7391548;19;20082;-81
2024/01/16 00:37:47;;;;;;;3.50;2.20;;;;;;;18.78;25.06;99356.72;7390179;19;20026;-81
2024/01/16 00:43:50;;;;;;;1.80;1.70;;;;;;;18.57;24.96;99361.50;7393900;19;20771;-81
2024/01/16 00:46:16;;;;;;;3.00;1.77;;;;;;;18.78;24.95;99342.59;7388724;19;20024;-80
2024/01/16 00:48:43;;;;;;;10.75;3.05;;;;;;;18.82;24.94;99351.50;7388128;19;20024;-80
2024/01/16 00:51:09;;;;;;;1.85;0.73;;;;;;;18.96;24.99;99344.53;7388353;19;20014;-80
2024/01/16 00:53:43;;;;;;;11.50;2.15;;;;;;;20.54;24.02;99328.31;7388376;19;20014;-80
2024/01/16 00:56:10;;;;;;;2.92;2.40;;;;;;;22.16;22.87;99322.72;7390693;19;20014;-80
2024/01/16 00:58:37;;;;;;;17.38;3.55;;;;;;;22.73;22.53;99319.41;7391544;19;20018;-81
2024/01/16 01:01:04;;;;;;;3.28;2.67;;;;;;;22.89;22.43;99324.44;7392981;19;20039;-81
2024/01/16 01:03:30;;;;;;;4.38;3.88;;;;;;;22.96;21.96;99322.91;7389431;19;20344;-80
2024/01/16 01:05:56;;;;;;;10.40;2.67;;;;;;;22.69;22.09;99324.72;7389231;19;20015;-80
2024/01/16 01:08:23;;;;;;;4.68;1.58;;;;;;;22.56;22.06;99320.78;7388863;19;20451;-80
2024/01/16 01:10:49;;;;;;;2.75;1.27;;;;;;;22.46;22.36;99321.91;7390262;19;20475;-80
2024/01/16 01:13:15;;;;;;;13.90;3.63;;;;;;;22.75;22.42;99319.59;7393317;19;20011;-80
2024/01/16 01:15:41;;;;;;;10.48;5.03;;;;;;;22.87;22.42;99321.44;7390483;19;20552;-80
2024/01/16 01:18:07;;;;;;;3.95;3.55;;;;;;;22.52;22.39;99320.38;7386334;19;20488;-80
2024/01/16 01:20:33;;;;;;;11.50;4.13;;;;;;;22.22;22.56;99326.09;7387629;19;20506;-80
2024/01/16 01:23:00;;;;;;;13.05;5.95;;;;;;;22.24;22.28;99322.72;7392918;19;20018;-81
2024/01/16 01:25:26;;;;;;;3.70;1.95;;;;;;;22.15;22.73;99323.28;7388171;19;20082;-81
2024/01/16 01:27:52;;;;;;;1.55;1.52;;;;;;;22.26;22.29;99320.06;7390026;19;20014;-81
2024/01/16 01:30:18;;;;;;;2.08;1.92;;;;;;;22.50;22.26;99331.53;7392248;19;20047;-81
2024/01/16 01:32:44;;;;;;;2.45;2.20;;;;;;;19.81;23.91;99328.72;7393316;19;20019;-81
2024/01/16 01:35:11;;;;;;;6.50;3.85;;;;;;;19.21;24.42;99316.81;7387895;19;20512;-81
2024/01/16 01:37:38;;;;;;;9.77;1.63;;;;;;;18.57;25.29;99319.19;7389223;19;20018;-81
2024/01/16 01:40:04;;;;;;;3.88;2.35;;;;;;;16.38;27.25;99327.19;7387177;19;20021;-81
2024/01/16 01:42:30;;;;;;;21.00;3.78;;;;;;;19.30;24.61;99317.06;7390150;19;20015;-81
2024/01/16 01:44:57;;;;;;;3.83;2.13;;;;;;;19.62;24.16;99308.41;7390143;19;20023;-81
2024/01/16 01:47:24;;;;;;;3.10;1.83;;;;;;;19.74;24.59;99314.50;7390327;19;20441;-81
2024/01/16 01:49:51;;;;;;;6.03;2.72;;;;;;;19.69;24.16;99307.69;7388381;19;20018;-80
2024/01/16 01:52:18;;;;;;;3.08;2.13;;;;;;;19.87;23.98;99314.44;7391566;19;20022;-80
2024/01/16 01:54:44;;;;;;;7.00;2.63;;;;;;;19.66;24.58;99306.72;7386463;19;20352;-80
2024/01/16 01:57:11;;;;;;;1.38;1.30;;;;;;;19.69;24.18;99307.69;7389051;19;20547;-80
2024/01/16 01:59:37;;;;;;;4.55;2.88;;;;;;;19.70;24.62;99294.31;7389929;19;20010;-80
2024/01/16 02:02:04;;;;;;;26.58;2.97;;;;;;;20.47;23.61;99297.91;7389658;19;20014;-80
2024/01/16 02:04:32;;;;;;;2.90;2.35;;;;;;;20.19;24.18;99283.75;7389499;19;20097;-80
2024/01/16 02:06:58;;;;;;;9.77;3.63;;;;;;;19.40;24.46;99287.09;7387970;19;20021;-80
2024/01/16 02:09:24;;;;;;;7.05;1.65;;;;;;;19.90;24.16;99293.56;7388254;19;20019;-80
2024/01/16 02:11:50;;;;;;;1.98;1.88;;;;;;;20.40;24.19;99290.91;7389986;19;20018;-80
2024/01/16 02:14:16;;;;;;;3.28;1.02;;;;;;;21.28;23.32;99285.97;7385397;19;20039;-81
2024/01/16 02:16:44;;;;;;;1.75;1.58;;;;;;;21.81;23.08;99281.09;7387333;19;20074;-81
2024/01/16 02:19:11;;;;;;;2.35;1.95;;;;;;;21.92;23.19;99274.34;7386760;19;20014;-81
2024/01/16 02:21:41;;;;;;;4.10;3.67;;;;;;;21.80;23.36;99273.94;7385375;19;20504;-80
2024/01/16 02:24:09;;;;;;;1.27;1.17;;;;;;;21.70;23.05;99275.84;7388078;19;20014;-80
2024/01/16 02:26:35;;;;;;;4.22;2.67;;;;;;;21.54;23.12;99280.75;7388971;19;20029;-80
2024/01/16 02:29:03;;;;;;;2.38;2.20;;;;;;;21.04;23.63;99278.75;7391006;19;20006;-80
2024/01/16 02:31:33;;;;;;;1.35;1.08;;;;;;;20.34;24.00;99283.88;7389294;19;20014;-80
2024/01/16 02:34:00;;;;;;;6.03;2.28;;;;;;;19.86;24.58;99282.59;7393001;19;20018;-81
2024/01/16 02:36:26;;;;;;;2.53;1.90;;;;;;;19.58;25.04;99279.72;7395085;19;20015;-80
2024/01/16 02:38:53;;;;;;;3.38;3.10;;;;;;;19.66;24.92;99270.00;7393817;19;20036;-81
2024/01/16 02:41:19;;;;;;;1.75;1.65;;;;;;;20.09;24.24;99271.44;7396793;19;20039;-80
2024/01/16 02:43:45;;;;;;;2.75;2.33;;;;;;;20.73;24.06;99271.44;7394702;19;20058;-80
2024/01/16 02:46:11;;;;;;;4.13;3.20;;;;;;;20.60;24.31;99263.84;7395667;19;20392;-80
2024/01/16 02:48:37;;;;;;;4.10;3.25;;;;;;;19.46;25.20;99278.47;7395675;19;20106;-80
2024/01/16 02:51:04;;;;;;;1.30;1.30;;;;;;;17.93;26.49;99291.19;7398178;19;20023;-80
2024/01/16 02:53:31;;;;;;;3.28;2.28;;;;;;;19.21;25.44;99265.97;7397222;19;20493;-80
2024/01/16 02:56:00;;;;;;;6.03;2.75;;;;;;;18.79;25.72;99268.72;7390087;19;20034;-81
2024/01/16 02:58:28;;;;;;;4.20;3.42;;;;;;;18.92;25.87;99251.75;7393435;19;20028;-81
2024/01/16 03:00:54;;;;;;;4.38;2.45;;;;;;;20.37;25.13;99257.31;7397545;19;20026;-82
2024/01/16 03:03:20;;;;;;;3.53;1.92;;;;;;;19.79;25.01;99255.03;7397143;19;20039;-81
2024/01/16 03:05:47;;;;;;;1.95;1.85;;;;;;;19.71;25.01;99253.47;7394570;19;20089;-81
2024/01/16 03:08:13;;;;;;;19.23;2.90;;;;;;;20.84;24.58;99246.38;7394740;19;20015;-80
2024/01/16 03:10:39;;;;;;;7.68;4.05;;;;;;;21.10;24.30;99242.50;7395800;19;20022;-81
2024/01/16 03:13:06;;;;;;;1.58;1.48;;;;;;;21.34;24.07;99241.22;7397081;19;20040;-81
2024/01/16 03:15:32;;;;;;;15.38;2.10;;;;;;;20.12;24.90;99242.06;7390203;19;20033;-80
2024/01/16 03:17:58;;;;;;;2.92;1.95;;;;;;;20.26;25.04;99235.00;7391464;19;20011;-82
2024/01/16 03:20:25;;;;;;;3.83;1.92;;;;;;;20.29;25.36;99233.91;7390673;19;20039;-81
2024/01/16 03:22:51;;;;;;;1.65;1.55;;;;;;;20.83;24.57;99225.06;7395055;19;20021;-81
2024/01/16 03:25:17;;;;;;;4.47;1.30;;;;;;;20.63;24.77;99216.69;7392848;19;20018;-81
2024/01/16 03:27:44;;;;;;;15.63;1.85;;;;;;;20.25;25.16;99227.81;7393746;19;20014;-81
2024/01/16 03:30:10;;;;;;;9.07;2.25;;;;;;;20.41;24.89;99229.44;7396693;19;20015;-81
2024/01/16 03:32:37;;;;;;;6.20;0.80;;;;;;;20.22;25.10;99224.06;7393898;19;20022;-81
2024/01/16 03:35:04;;;;;;;1.50;1.40;;;;;;;20.58;24.67;99215.53;7390654;19;20535;-81
2024/01/16 03:37:30;;;;;;;1.52;1.42;;;;;;;20.68;24.77;99224.25;7391235;19;20015;-81
2024/01/16 03:39:57;;;;;;;2.63;1.52;;;;;;;19.68;25.34;99216.50;7390866;19;20018;-81
2024/01/16 03:42:23;;;;;;;1.08;1.02;;;;;;;19.88;25.47;99222.69;7390626;19;20018;-80
2024/01/16 03:44:49;;;;;;;8.93;2.92;;;;;;;20.00;25.34;99218.25;7392700;19;20038;-80
2024/01/16 03:47:16;;;;;;;2.08;1.10;;;;;;;20.64;25.11;99210.47;7393396;19;20571;-81
2024/01/16 03:49:42;;;;;;;0.95;0.95;;;;;;;20.90;24.96;99201.66;7391222;19;20018;-81
2024/01/16 03:52:08;;;;;;;3.20;1.90;;;;;;;20.86;25.11;99201.28;7392416;19;20029;-81
2024/01/16 03:54:35;;;;;;;4.47;1.45;;;;;;;20.94;24.79;99196.41;7395008;19;20439;-81
2024/01/16 03:57:01;;;;;;;1.33;1.08;;;;;;;20.98;24.57;99187.56;7390682;19;20010;-81
2024/01/16 03:59:27;;;;;;;0.57;0.57;;;;;;;20.81;24.80;99190.88;7392827;19;20010;-81
2024/01/16 04:01:53;;;;;;;2.53;2.05;;;;;;;21.18;24.50;99191.56;7391881;19;20015;-81
2024/01/16 04:04:19;;;;;;;1.40;1.38;;;;;;;21.25;24.58;99185.13;7391251;19;20384;-81
2024/01/16 04:06:49;;;;;;;4.72;2.00;;;;;;;20.73;24.56;99190.13;7395620;19;20409;-81
2024/01/16 04:09:15;;;;;;;10.80;2.53;;;;;;;20.89;24.86;99185.25;7390218;19;20439;-81
2024/01/16 04:11:41;;;;;;;4.15;1.38;;;;;;;21.22;24.51;99183.44;7392011;19;20515;-80
2024/01/16 04:14:07;;;;;;;2.00;1.70;;;;;;;21.74;24.29;99191.91;7389416;19;20014;-80
2024/01/16 04:16:33;;;;;;;6.60;1.70;;;;;;;22.30;23.59;99173.66;7393871;19;20018;-81
2024/01/16 04:18:59;;;;;;;22.80;2.05;;;;;;;21.62;24.41;99173.03;7392245;19;20018;-81
2024/01/16 04:21:25;;;;;;;3.30;1.80;;;;;;;21.89;24.18;99174.16;7391787;19;20468;-81
2024/01/16 04:23:52;;;;;;;2.95;1.60;;;;;;;22.08;24.33;99168.06;7389775;19;20030;-81
2024/01/16 04:26:18;;;;;;;2.47;1.92;;;;;;;21.41;24.79;99175.34;7395065;19;20014;-81
2024/01/16 04:28:44;;;;;;;2.08;1.35;;;;;;;21.64;24.49;99176.81;7393693;19;20852;-80
2024/01/16 04:31:11;;;;;;;1.17;1.17;;;;;;;21.52;24.50;99175.72;7396680;19;20015;-81
2024/01/16 04:33:38;;;;;;;0.93;0.65;;;;;;;21.42;24.54;99176.84;7390575;19;20022;-81
2024/01/16 04:36:06;;;;;;;1.38;1.35;;;;;;;21.34;24.51;99170.41;7392120;19;20015;-81
2024/01/16 04:38:32;;;;;;;11.00;1.73;;;;;;;20.94;25.05;99170.91;7391196;19;20022;-82
2024/01/16 04:41:02;;;;;;;4.07;1.73;;;;;;;21.16;24.84;99168.72;7390042;19;20018;-81
2024/01/16 04:43:28;;;;;;;2.67;0.93;;;;;;;21.13;25.06;99174.19;7388579;19;20406;-80
2024/01/16 04:45:55;;;;;;;3.20;1.17;;;;;;;21.14;24.94;99169.28;7391201;19;20019;-81
2024/01/16 04:48:21;;;;;;;0.98;0.95;;;;;;;20.99;25.29;99164.31;7392139;19;20464;-81
2024/01/16 04:50:47;;;;;;;7.43;2.05;;;;;;;21.40;24.55;99157.56;7392733;19;20025;-81
2024/01/16 04:53:13;;;;;;;3.17;1.80;;;;;;;21.33;24.67;99155.50;7387374;19;20447;-81
2024/01/16 04:55:40;;;;;;;4.45;2.05;;;;;;;21.49;24.99;99159.06;7390907;19;20495;-81
2024/01/16 04:58:07;;;;;;;1.85;0.95;;;;;;;21.79;24.47;99153.34;7388947;19;20025;-81
2024/01/16 05:00:33;;;;;;;14.15;2.00;;;;;;;21.61;25.03;99151.72;7392194;19;20081;-80
2024/01/16 05:02:59;;;;;;;2.60;2.15;;;;;;;21.97;24.38;99142.94;7389993;19;20019;-81
2024/01/16 05:05:25;;;;;;;2.05;1.45;;;;;;;21.76;24.83;99143.19;7391127;19;20473;-81
2024/01/16 05:07:51;;;;;;;5.72;1.60;;;;;;;21.38;24.93;99145.28;7388930;19;20040;-81
2024/01/16 05:10:17;;;;;;;1.48;1.00;;;;;;;21.45;25.02;99130.38;7390732;19;20018;-80
2024/01/16 05:12:43;;;;;;;3.53;1.25;;;;;;;21.47;24.88;99127.72;7388862;19;20018;-81
2024/01/16 05:15:14;;;;;;;1.85;1.00;;;;;;;21.12;24.88;99124.53;7390308;19;21185;-81
2024/01/16 05:17:40;;;;;;;3.63;1.35;;;;;;;21.38;24.98;99125.47;7390126;19;20015;-81
2024/01/16 05:20:08;;;;;;;2.42;1.65;;;;;;;20.94;25.34;99122.06;7389899;19;20018;-81
2024/01/16 05:22:34;;;;;;;1.20;1.13;;;;;;;20.95;25.26;99118.66;7389744;19;20015;-81
2024/01/16 05:25:00;;;;;;;1.27;0.68;;;;;;;20.28;25.97;99119.25;7391168;19;20589;-80
2024/01/16 05:27:27;;;;;;;0.47;0.47;;;;;;;20.62;25.77;99116.91;7389416;19;20010;-81
2024/01/16 05:29:53;;;;;;;3.92;1.48;;;;;;;21.13;25.65;99109.06;7394563;19;20018;-81
2024/01/16 05:32:19;;;;;;;0.70;0.70;;;;;;;22.15;24.93;99108.50;7389956;19;20550;-81
2024/01/16 05:34:45;;;;;;;3.97;2.03;;;;;;;20.96;25.33;99100.34;7388388;19;20360;-81
2024/01/16 05:37:11;;;;;;;1.02;0.95;;;;;;;22.41;24.50;99104.38;7393223;19;20020;-80
2024/01/16 05:39:38;;;;;;;4.65;2.60;;;;;;;24.28;23.25;99105.41;7388015;19;20019;-81
2024/01/16 05:42:05;;;;;;;1.50;1.25;;;;;;;24.94;22.88;99095.72;7387649;19;20022;-81
2024/01/16 05:44:31;;;;;;;0.63;0.63;;;;;;;24.00;23.05;99098.88;7389022;19;20061;-81
2024/01/16 05:46:57;;;;;;;0.68;0.65;;;;;;;22.43;24.56;99096.81;7395595;19;20026;-81
2024/01/16 05:49:23;;;;;;;0.88;0.73;;;;;;;21.74;24.84;99097.66;7389621;19;20471;-81
2024/01/16 05:51:49;;;;;;;2.28;0.60;;;;;;;19.91;26.69;99092.31;7388881;19;20073;-81
2024/01/16 05:54:15;;;;;;;19.50;1.83;;;;;;;22.34;24.37;99088.16;7387501;19;20018;-81
2024/01/16 05:56:42;;;;;;;1.65;1.55;;;;;;;22.30;24.69;99077.22;7391087;19;20496;-81
2024/01/16 05:59:08;;;;;;;0.30;0.30;;;;;;;21.97;24.68;99087.00;7386292;19;20023;-81
2024/01/16 06:01:34;;;;;;;1.83;1.17;;;;;;;21.21;25.49;99082.81;7385819;19;20003;-81
2024/01/16 06:04:00;;;;;;;5.07;1.08;;;;;;;20.88;25.88;99073.34;7391193;19;20390;-81
2024/01/16 06:06:26;;;;;;;0.38;0.38;;;;;;;21.32;25.75;99079.59;7398629;19;20369;-81
2024/01/16 06:08:52;;;;;;;0.65;0.60;;;;;;;21.69;25.09;99076.69;7398362;19;20360;-81
2024/01/16 06:11:20;;;;;;;0.55;0.55;;;;;;;21.37;25.36;99072.97;7396591;19;20022;-84
2024/01/16 06:13:46;;;;;;;9.43;1.52;;;;;;;22.66;24.66;99064.69;7393916;19;20014;-82
2024/01/16 06:16:13;;;;;;;9.07;1.73;;;;;;;24.47;23.28;99057.13;7397382;19;20415;-82
2024/01/16 06:18:39;;;;;;;1.17;1.05;;;;;;;23.77;23.70;99052.91;7393770;19;20037;-81
2024/01/16 06:21:05;;;;;;;2.10;1.27;;;;;;;23.86;23.75;99048.63;7393084;19;20031;-82
2024/01/16 06:23:31;;;;;;;3.05;1.83;;;;;;;24.11;23.82;99046.41;7395540;19;20111;-82
2024/01/16 06:25:57;;;;;;;0.82;0.70;;;;;;;24.33;23.58;99038.91;7399977;19;20014;-82
2024/01/16 06:28:23;;;;;;;0.57;0.57;;;;;;;23.60;23.69;99033.00;7399340;19;20591;-82
2024/01/16 06:30:49;;;;;;;2.55;0.82;;;;;;;21.68;25.49;99049.66;7401218;19;20015;-82
2024/01/16 06:33:15;;;;;;;0.70;0.70;;;;;;;22.00;25.26;99034.81;7396731;19;20338;-82
2024/01/16 06:35:41;;;;;;;1.77;1.67;;;;;;;21.32;25.74;99043.53;7394967;19;20019;-82
2024/01/16 06:38:08;;;;;;;1.90;1.05;;;;;;;21.12;25.92;99038.81;7398327;19;20033;-82
2024/01/16 06:40:34;;;;;;;5.43;2.53;;;;;;;21.04;25.82;99030.34;7392297;19;20011;-82
2024/01/16 06:43:00;;;;;;;5.38;2.17;;;;;;;21.25;25.70;99037.84;7392146;19;20010;-82
2024/01/16 06:45:26;;;;;;;4.47;1.27;;;;;;;21.62;25.42;99028.50;7396283;19;20011;-81
2024/01/16 06:47:52;;;;;;;14.05;2.50;;;;;;;21.64;25.29;99020.19;7395174;19;20022;-82
2024/01/16 06:50:19;;;;;;;7.10;1.60;;;;;;;21.53;25.64;99023.44;7396279;19;20022;-82
2024/01/16 06:52:45;;;;;;;2.30;1.38;;;;;;;21.94;25.23;99022.94;7392968;19;20018;-85
2024/01/16 06:55:11;;;;;;;1.95;1.40;;;;;;;21.77;24.97;99022.78;7393738;19;20026;-83
2024/01/16 06:57:37;;;;;;;1.88;1.38;;;;;;;23.33;24.67;99009.41;7396887;19;20382;-83
2024/01/16 07:00:07;;;;;;;15.63;2.80;;;;;;;24.94;23.32;99022.41;7395606;19;20018;-83
2024/01/16 07:02:33;;;;;;;3.92;1.33;;;;;;;24.90;23.08;99022.13;7393441;19;20022;-84
2024/01/16 07:04:59;;;;;;;0.63;0.63;;;;;;;23.35;24.07;99018.09;7396564;19;20480;-85
2024/01/16 07:07:26;;;;;;;0.93;0.93;;;;;;;19.41;27.68;99025.22;7398034;19;20010;-83
2024/01/16 07:09:52;;;;;;;0.90;0.90;;;;;;;24.86;23.68;99012.50;7393585;19;20487;-84
2024/01/16 07:12:18;;;;;;;1.90;0.73;;;;;;;22.16;25.33;99010.72;7391077;19;20010;-84
2024/01/16 07:14:44;;;;;;;3.20;1.73;;;;;;;23.60;24.46;99010.25;7391274;19;20013;-84
2024/01/16 07:17:11;;;;;;;6.95;1.85;;;;;;;23.93;23.80;99011.53;7395270;19;20031;-84
2024/01/16 07:19:37;;;;;;;1.77;0.95;;;;;;;24.16;23.85;99001.97;7391555;19;20058;-83
2024/01/16 07:22:03;;;;;;;3.33;0.90;;;;;;;23.88;24.25;99006.13;7391589;19;20015;-83
2024/01/16 07:24:29;;;;;;;0.95;0.95;;;;;;;23.70;24.25;99002.56;7392675;19;20025;-83
2024/01/16 07:26:56;;;;;;;3.15;0.55;;;;;;;23.24;24.62;98990.91;7396555;19;20055;-84
2024/01/16 07:29:22;;;;;;;1.55;1.38;;;;;;;20.71;26.35;99003.16;7394620;19;20044;-84
2024/01/16 07:31:48;;;;;;;1.85;0.82;;;;;;;20.67;26.65;98997.13;7394059;19;20014;-84
2024/01/16 07:34:19;;;;;;;2.80;0.88;;;;;;;20.52;26.90;98997.13;7392536;19;20021;-84
2024/01/16 07:36:45;;;;;;;0.70;0.52;;;;;;;23.63;24.24;98986.31;7396240;19;20097;-83
2024/01/16 07:39:12;;;;;;;1.63;1.52;;;;;;;23.68;24.22;98988.16;7392440;19;20119;-83
2024/01/16 07:41:38;;;;;;;2.38;0.95;;;;;;;24.65;23.84;98978.81;7393975;19;20476;-83
2024/01/16 07:44:04;;;;;;;2.63;1.38;;;;;;;25.38;22.95;98980.16;7392966;19;20022;-84
2024/01/16 07:46:30;;;;;;;0.80;0.75;;;;;;;25.68;22.87;98978.09;7396900;19;20037;-85
2024/01/16 07:48:56;;;;;;;2.20;1.42;;;;;;;25.16;23.43;98975.69;7392864;19;20022;-85
2024/01/16 07:51:22;;;;;;;1.00;1.00;;;;;;;25.99;22.53;98984.69;7393530;19;20075;-86
2024/01/16 07:54:04;;;;;;;3.03;1.60;;;;;;;25.04;23.22;98974.00;7390515;19;20025;-85
2024/01/16 07:56:30;;;;;;;0.52;0.38;;;;;;;25.12;23.19;98983.91;7392257;19;20051;-85
2024/01/16 07:58:56;;;;;;;1.60;0.77;;;;;;;24.86;23.32;98975.47;7392015;19;20362;-85
2024/01/16 08:01:22;;;;;;;0.82;0.82;;;;;;;24.81;23.20;98980.09;7391086;19;20014;-85
2024/01/16 08:03:48;;;;;;;0.57;0.57;;;;;;;23.35;24.32;98975.47;7389892;19;20029;-83
2024/01/16 08:06:14;;;;;;;1.23;1.13;;;;;;;25.30;23.30;98973.88;7392514;19;20567;-83
2024/01/16 08:08:41;;;;;;;4.07;3.00;;;;;;;23.81;24.09;98973.59;7393376;19;20025;-84
2024/01/16 08:11:07;;;;;;;11.50;2.58;;;;;;;23.08;24.70;98972.53;7393181;19;20094;-85
2024/01/16 08:13:33;;;;;;;2.60;1.20;;;;;;;22.99;24.88;98966.75;7392824;19;20014;-84
2024/01/16 08:16:00;;;;;;;0.60;0.57;;;;;;;21.46;25.98;98970.41;7392008;19;20014;-85
2024/01/16 08:18:26;;;;;;;3.72;1.10;;;;;;;20.87;26.71;98969.94;7392830;19;20022;-84
2024/01/16 08:20:52;;;;;;;2.83;2.10;;;;;;;21.89;25.52;98958.72;7394000;19;20050;-84
2024/01/16 08:23:21;;;;;;;2.00;1.05;;;;;;;21.78;25.92;98953.44;7391954;19;20032;-84
2024/01/16 08:25:47;;;;;;;2.67;1.50;;;;;;;20.59;26.55;98965.25;7390954;19;20011;-85
2024/01/16 08:28:14;;;;;;;0.50;0.50;;;;;;;21.30;26.32;98964.03;7391434;19;20041;-84
2024/01/16 08:30:40;;;;;;;0.30;0.30;;;;;;;19.70;27.63;98960.94;7395996;19;20027;-84
2024/01/16 08:33:07;;;;;;;2.10;1.20;;;;;;;20.98;27.13;98958.25;7389951;19;20364;-84
2024/01/16 08:35:33;;;;;;;5.13;1.67;;;;;;;20.37;27.53;98954.69;7389923;19;20022;-83
2024/01/16 08:37:59;;;;;;;0.40;0.40;;;;;;;19.09;28.25;98943.72;7390036;19;20108;-84
2024/01/16 08:40:25;;;;;;;0.47;0.47;;;;;;;19.74;28.27;98947.97;7390038;19;20200;-85
2024/01/16 08:42:54;;;;;;;0.77;0.77;;;;;;;20.76;27.10;98942.81;7388771;19;20018;-87
2024/01/16 08:45:21;;;;;;;0.70;0.70;;;;;;;21.10;26.90;98933.88;7389679;19;20049;-86
2024/01/16 08:47:48;;;;;;;1.48;1.40;;;;;;;22.07;26.22;98929.09;7400181;19;20018;-86
2024/01/16 08:50:14;;;;;;;6.70;1.25;;;;;;;22.80;25.39;98935.34;7396434;19;20018;-86
2024/01/16 08:52:40;;;;;;;2.97;1.67;;;;;;;22.70;25.72;98945.84;7395740;19;20468;-85
2024/01/16 08:55:06;;;;;;;4.43;1.13;;;;;;;22.78;25.94;98938.00;7391532;19;20025;-85
2024/01/16 08:57:33;;;;;;;0.43;0.43;;;;;;;22.59;25.78;98942.13;7394741;19;20015;-85
2024/01/16 08:59:59;;;;;;;2.53;0.88;;;;;;;25.33;23.88;98926.31;7395301;19;20010;-84
2024/01/16 09:02:28;;;;;;;3.30;0.93;;;;;;;25.60;23.83;98937.59;7388714;19;20019;-88
2024/01/16 09:04:55;;;;;;;10.70;1.98;;;;;;;26.03;23.23;98922.19;7391046;19;20027;-85
2024/01/16 09:07:21;;;;;;;0.82;0.82;;;;;;;25.48;23.56;98926.78;7395186;19;20038;-83
2024/01/16 09:09:47;;;;;;;0.55;0.55;;;;;;;25.55;23.38;98920.16;7392070;19;20018;-83
2024/01/16 09:12:13;;;;;;;1.20;0.88;;;;;;;25.23;23.46;98912.06;7389622;19;20037;-84
2024/01/16 09:14:41;;;;;;;1.98;1.42;;;;;;;25.39;23.00;98910.41;7389777;19;20366;-84
2024/01/16 09:17:07;;;;;;;1.48;1.38;;;;;;;25.81;22.87;98900.63;7390341;19;20028;-82
2024/01/16 09:19:33;;;;;;;0.73;0.63;;;;;;;25.41;23.21;98899.16;7388531;19;20047;-85
2024/01/16 09:21:59;;;;;;;2.85;1.85;;;;;;;26.20;22.10;98896.31;7393596;19;20046;-85
2024/01/16 09:24:26;;;;;;;2.88;1.48;;;;;;;25.99;22.46;98910.47;7389695;19;20018;-84
2024/01/16 09:26:52;;;;;;;1.08;1.08;;;;;;;25.35;22.87;98912.97;7394351;19;20464;-84
2024/01/16 09:29:18;;;;;;;0.38;0.38;;;;;;;26.22;22.24;98905.00;7390834;19;20010;-84
2024/01/16 09:31:44;;;;;;;1.92;0.65;;;;;;;26.01;22.48;98908.50;7388766;19;20370;-85
2024/01/16 09:34:10;;;;;;;0.60;0.57;;;;;;;25.30;23.01;98913.25;7389824;19;20021;-84
2024/01/16 09:36:36;;;;;;;0.35;0.35;;;;;;;25.28;23.40;98902.47;7392779;19;20346;-85
2024/01/16 09:39:07;;;;;;;5.25;2.30;;;;;;;25.63;23.65;98902.16;7395315;19;20423;-85
2024/01/16 09:41:37;;;;;;;9.43;2.03;;;;;;;25.41;23.94;98904.84;7391207;19;20026;-85
2024/01/16 09:44:04;;;;;;;0.30;0.30;;;;;;;25.18;24.30;98903.81;7390093;19;20035;-85
2024/01/16 09:46:32;;;;;;;1.80;1.17;;;;;;;24.29;24.98;98896.31;7389537;19;20016;-85
2024/01/16 09:49:01;;;;;;;2.58;1.77;;;;;;;24.35;25.36;98899.59;7386788;19;20022;-84
2024/01/16 09:51:28;;;;;;;1.13;1.05;;;;;;;24.28;24.93;98891.97;7384822;19;20019;-84
2024/01/16 09:53:54;;;;;;;0.50;0.50;;;;;;;25.70;24.32;98887.75;7382810;19;20026;-84
2024/01/16 09:56:24;;;;;;;0.52;0.22;;;;;;;25.98;24.18;98889.00;7383631;19;20464;-84
2024/01/16 09:58:56;;;;;;;0.77;0.77;;;;;;;24.52;25.50;98885.28;7382371;19;20010;-84
2024/01/16 10:01:25;;;;;;;0.30;0.30;;;;;;;24.95;24.84;98881.47;7382373;19;20014;-86
2024/01/16 10:03:51;;;;;;;0.77;0.30;;;;;;;24.83;25.00;98881.31;7385110;19;20022;-85
2024/01/16 10:06:19;;;;;;;0.85;0.40;;;;;;;22.27;27.04;98879.78;7387059;19;20038;-85
2024/01/16 10:08:46;;;;;;;0.88;0.80;;;;;;;23.85;26.60;98877.22;7388099;19;20026;-85
2024/01/16 10:11:12;;;;;;;2.50;0.73;;;;;;;27.73;23.25;98858.00;7387713;19;20024;-85
2024/01/16 10:13:39;;;;;;;0.30;0.30;;;;;;;28.24;22.59;98859.06;7388425;19;20041;-85
2024/01/16 10:16:05;;;;;;;1.55;0.52;;;;;;;27.23;23.07;98846.91;7388433;19;20050;-85
2024/01/16 10:18:34;;;;;;;4.88;1.05;;;;;;;27.82;22.52;98845.69;7386774;19;20087;-85
2024/01/16 10:21:01;;;;;;;0.20;0.20;;;;;;;26.66;23.69;98850.22;7387322;19;20798;-85
2024/01/16 10:23:32;;;;;;;0.63;0.40;;;;;;;23.40;25.88;98860.06;7386021;19;20502;-82
2024/01/16 10:26:12;;;;;;;0.63;0.60;;;;;;;22.63;26.26;98860.16;7388135;19;20030;-85
2024/01/16 10:28:42;;;;;;;0.20;0.20;;;;;;;24.27;25.07;98853.47;7389667;19;20031;-85
2024/01/16 10:31:10;;;;;;;2.23;1.53;;;;;;;23.54;25.58;98844.88;7391844;19;20018;-84
2024/01/16 10:33:39;;;;;;;0.13;0.13;;;;;;;23.99;25.45;98840.63;7385235;19;20026;-84
2024/01/16 10:36:12;;;;;;;0.95;0.68;;;;;;;22.81;26.16;98834.63;7385720;19;20018;-85
2024/01/16 10:38:40;;;;;;;0.93;0.47;;;;;;;22.54;26.55;98835.25;7385763;19;20027;-84
2024/01/16 10:41:10;;;;;;;0.20;0.20;;;;;;;21.77;27.47;98833.63;7386702;19;20014;-84
2024/01/16 10:43:37;;;;;;;0.32;0.20;;;;;;;22.05;27.70;98834.56;7387425;19;20146;-82
2024/01/16 10:46:14;;;;;;;1.95;0.90;;;;;;;20.69;28.30;98829.63;7387095;19;20022;-84
2024/01/16 10:48:45;;;;;;;0.55;0.47;;;;;;;20.27;29.21;98832.16;7386734;19;20015;-85
2024/01/16 10:51:14;;;;;;;;;;;;;;;19.81;29.49;98824.97;7383705;19;20695;-84
2024/01/16 10:53:43;;;;;;;0.25;0.25;;;;;;;20.18;29.58;98824.97;7387598;19;19939;-85
2024/01/16 10:56:13;;;;;;;1.00;0.57;;;;;;;20.39;29.67;98819.13;7389239;19;20014;-84
2024/01/16 10:58:43;;;;;;;0.20;0.10;;;;;;;20.76;29.21;98812.63;7387624;19;20015;-84
2024/01/16 11:01:15;;;;;;;6.22;1.23;;;;;;;21.01;29.19;98815.53;7393563;19;20019;-84
2024/01/16 11:03:49;;;;;;;1.13;0.85;;;;;;;21.04;29.22;98820.84;7388539;19;20013;-84
2024/01/16 11:06:19;;;;;;;2.10;0.38;;;;;;;22.38;27.90;98811.22;7391157;19;20026;-84
2024/01/16 11:08:49;;;;;;;1.38;1.27;;;;;;;23.27;27.41;98812.84;7392580;19;20022;-85
2024/01/16 11:11:16;;;;;;;0.95;0.95;;;;;;;24.60;26.35;98801.22;7396339;19;20378;-85
2024/01/16 11:13:46;;;;;;;0.43;0.43;;;;;;;24.16;26.80;98806.41;7392368;19;20047;-87
2024/01/16 11:16:12;;;;;;;1.05;0.65;;;;;;;25.57;25.71;98794.13;7392751;19;20476;-88
2024/01/16 11:18:39;;;;;;;0.32;0.32;;;;;;;24.90;26.25;98793.47;7392712;19;20352;-88
2024/01/16 11:21:09;;;;;;;0.52;0.38;;;;;;;23.43;27.41;98797.13;7392838;19;20022;-90
2024/01/16 11:23:37;;;;;;;0.32;0.22;;;;;;;23.21;27.68;98803.84;7393203;19;20022;-89
2024/01/16 11:26:33;;;;;;;0.35;0.30;;;;;;;22.94;27.71;98805.88;7393409;19;20046;-89
2024/01/16 11:29:20;;;;;;;0.22;0.22;;;;;;;22.98;27.53;98797.69;7394926;19;20022;-89
2024/01/16 11:31:46;;;;;;;0.47;0.38;;;;;;;22.24;28.00;98787.31;7394725;19;20041;-89
2024/01/16 11:34:12;;;;;;;1.00;0.50;;;;;;;21.79;28.30;98784.88;7392937;19;20018;-88
2024/01/16 11:36:48;;;;;;;0.75;0.57;;;;;;;21.95;28.70;98774.19;7394029;19;20481;-88